sensor_id;sensor_type;location;lat;lon;timestamp;pressure;altitude;pressure_sealevel;temperature;humidity
66588;BME280;53446;50.076;8.198;2023-12-22T00:01:54;98146.69;;;4.83;100.00
66588;BME280;53446;50.076;8.198;2023-12-22T00:03:54;98150.97;;;4.86;100.00
66588;BME280;53446;50.076;8.198;2023-12-22T00:05:56;98165.09;;;4.88;100.00
66588;BME280;53446;50.076;8.198;2023-12-22T00:07:56;98172.19;;;4.89;100.00
66588;BME280;53446;50.076;8.198;2023-12-22T00:09:56;98169.63;;;4.87;100.00
66588;BME280;53446;50.076;8.198;2023-12-22T00:11:57;98153.53;;;4.87;100.00
66588;BME280;53446;50.076;8.198;2023-12-22T00:13:57;98158.81;;;4.89;100.00
66588;BME280;53446;50.076;8.198;2023-12-22T00:15:58;98159.00;;;4.86;100.00
66588;BME280;53446;50.076;8.198;2023-12-22T00:17:58;98169.50;;;4.89;100.00
66588;BME280;53446;50.076;8.198;2023-12-22T00:19:58;98155.25;;;4.88;100.00
66588;BME280;53446;50.076;8.198;2023-12-22T00:22:03;98145.16;;;4.92;100.00
66588;BME280;53446;50.076;8.198;2023-12-22T00:24:03;98134.47;;;4.92;100.00
66588;BME280;53446;50.076;8.198;2023-12-22T00:26:05;98130.69;;;4.95;100.00
66588;BME280;53446;50.076;8.198;2023-12-22T00:28:05;98133.28;;;4.96;100.00
66588;BME280;53446;50.076;8.198;2023-12-22T00:30:06;98138.28;;;5.01;100.00
66588;BME280;53446;50.076;8.198;2023-12-22T00:32:06;98152.31;;;5.04;100.00
66588;BME280;53446;50.076;8.198;2023-12-22T00:34:09;98160.09;;;5.07;100.00
66588;BME280;53446;50.076;8.198;2023-12-22T00:36:09;98142.75;;;5.13;100.00
66588;BME280;53446;50.076;8.198;2023-12-22T00:38:10;98155.78;;;5.18;100.00
66588;BME280;53446;50.076;8.198;2023-12-22T00:40:10;98147.41;;;5.22;100.00
66588;BME280;53446;50.076;8.198;2023-12-22T00:42:10;98159.38;;;5.29;100.00
66588;BME280;53446;50.076;8.198;2023-12-22T00:44:11;98180.50;;;5.34;100.00
66588;BME280;53446;50.076;8.198;2023-12-22T00:46:12;98167.69;;;5.38;100.00
66588;BME280;53446;50.076;8.198;2023-12-22T00:48:13;98146.25;;;5.38;100.00
66588;BME280;53446;50.076;8.198;2023-12-22T00:50:13;98134.22;;;5.43;100.00
66588;BME280;53446;50.076;8.198;2023-12-22T00:52:13;98157.63;;;5.41;100.00
66588;BME280;53446;50.076;8.198;2023-12-22T00:54:14;98143.97;;;5.44;100.00
66588;BME280;53446;50.076;8.198;2023-12-22T00:56:14;98152.53;;;5.49;100.00
66588;BME280;53446;50.076;8.198;2023-12-22T00:58:14;98166.66;;;5.51;100.00
66588;BME280;53446;50.076;8.198;2023-12-22T01:00:15;98150.59;;;5.51;100.00
66588;BME280;53446;50.076;8.198;2023-12-22T01:02:16;98163.88;;;5.53;100.00
66588;BME280;53446;50.076;8.198;2023-12-22T01:04:16;98165.22;;;5.59;100.00
66588;BME280;53446;50.076;8.198;2023-12-22T01:06:17;98188.91;;;5.65;100.00
66588;BME280;53446;50.076;8.198;2023-12-22T01:08:17;98189.28;;;5.71;100.00
66588;BME280;53446;50.076;8.198;2023-12-22T01:10:18;98195.38;;;5.73;100.00
66588;BME280;53446;50.076;8.198;2023-12-22T01:12:18;98203.31;;;5.75;100.00
66588;BME280;53446;50.076;8.198;2023-12-22T01:14:18;98240.88;;;5.75;100.00
66588;BME280;53446;50.076;8.198;2023-12-22T01:16:18;98222.22;;;5.73;100.00
66588;BME280;53446;50.076;8.198;2023-12-22T01:18:21;98222.44;;;5.70;100.00
66588;BME280;53446;50.076;8.198;2023-12-22T01:20:21;98210.22;;;5.66;100.00
66588;BME280;53446;50.076;8.198;2023-12-22T01:22:22;98227.75;;;5.59;100.00
66588;BME280;53446;50.076;8.198;2023-12-22T01:24:22;98239.28;;;5.48;100.00
66588;BME280;53446;50.076;8.198;2023-12-22T01:26:23;98242.19;;;5.45;100.00
66588;BME280;53446;50.076;8.198;2023-12-22T01:28:23;98225.59;;;5.40;100.00
66588;BME280;53446;50.076;8.198;2023-12-22T01:30:24;98253.72;;;5.35;100.00
66588;BME280;53446;50.076;8.198;2023-12-22T01:32:24;98258.22;;;5.34;100.00
66588;BME280;53446;50.076;8.198;2023-12-22T01:34:24;98252.31;;;5.29;100.00
66588;BME280;53446;50.076;8.198;2023-12-22T01:36:25;98267.78;;;5.25;100.00
66588;BME280;53446;50.076;8.198;2023-12-22T01:38:25;98265.19;;;5.24;100.00
66588;BME280;53446;50.076;8.198;2023-12-22T01:40:26;98255.47;;;5.23;100.00
66588;BME280;53446;50.076;8.198;2023-12-22T01:42:26;98255.91;;;5.17;100.00
66588;BME280;53446;50.076;8.198;2023-12-22T01:44:26;98262.34;;;5.14;100.00
66588;BME280;53446;50.076;8.198;2023-12-22T01:46:27;98272.19;;;5.14;100.00
66588;BME280;53446;50.076;8.198;2023-12-22T01:48:27;98272.94;;;5.16;100.00
66588;BME280;53446;50.076;8.198;2023-12-22T01:50:28;98271.97;;;5.17;100.00
66588;BME280;53446;50.076;8.198;2023-12-22T01:52:29;98274.03;;;5.13;100.00
66588;BME280;53446;50.076;8.198;2023-12-22T01:54:29;98258.81;;;5.14;100.00
66588;BME280;53446;50.076;8.198;2023-12-22T01:56:30;98262.09;;;5.17;100.00
66588;BME280;53446;50.076;8.198;2023-12-22T01:58:32;98255.91;;;5.17;100.00
66588;BME280;53446;50.076;8.198;2023-12-22T02:00:34;98262.97;;;5.18;100.00
66588;BME280;53446;50.076;8.198;2023-12-22T02:02:35;98264.69;;;5.19;100.00
66588;BME280;53446;50.076;8.198;2023-12-22T02:04:36;98269.94;;;5.20;100.00
66588;BME280;53446;50.076;8.198;2023-12-22T02:06:36;98271.53;;;5.23;100.00
66588;BME280;53446;50.076;8.198;2023-12-22T02:08:37;98272.28;;;5.25;100.00
66588;BME280;53446;50.076;8.198;2023-12-22T02:10:38;98265.09;;;5.25;100.00
66588;BME280;53446;50.076;8.198;2023-12-22T02:12:38;98257.56;;;5.30;100.00
66588;BME280;53446;50.076;8.198;2023-12-22T02:14:39;98252.97;;;5.33;100.00
66588;BME280;53446;50.076;8.198;2023-12-22T02:16:52;98252.72;;;5.36;100.00
66588;BME280;53446;50.076;8.198;2023-12-22T02:18:55;98248.97;;;5.38;100.00
66588;BME280;53446;50.076;8.198;2023-12-22T02:20:56;98257.75;;;5.40;100.00
66588;BME280;53446;50.076;8.198;2023-12-22T02:22:57;98245.84;;;5.44;100.00
66588;BME280;53446;50.076;8.198;2023-12-22T02:24:57;98250.22;;;5.45;100.00
66588;BME280;53446;50.076;8.198;2023-12-22T02:27:22;98238.53;;;5.46;100.00
66588;BME280;53446;50.076;8.198;2023-12-22T02:29:25;98239.72;;;5.42;100.00
66588;BME280;53446;50.076;8.198;2023-12-22T02:31:37;98242.19;;;5.45;100.00
66588;BME280;53446;50.076;8.198;2023-12-22T02:33:45;98259.84;;;5.48;100.00
66588;BME280;53446;50.076;8.198;2023-12-22T02:35:48;98271.34;;;5.50;100.00
66588;BME280;53446;50.076;8.198;2023-12-22T02:37:49;98258.06;;;5.48;100.00
66588;BME280;53446;50.076;8.198;2023-12-22T02:39:51;98261.25;;;5.54;100.00
66588;BME280;53446;50.076;8.198;2023-12-22T02:41:52;98251.47;;;5.52;100.00
66588;BME280;53446;50.076;8.198;2023-12-22T02:43:53;98245.06;;;5.55;100.00
66588;BME280;53446;50.076;8.198;2023-12-22T02:45:53;98249.44;;;5.56;100.00
66588;BME280;53446;50.076;8.198;2023-12-22T02:47:53;98248.47;;;5.57;100.00
66588;BME280;53446;50.076;8.198;2023-12-22T02:49:54;98264.53;;;5.57;100.00
66588;BME280;53446;50.076;8.198;2023-12-22T02:51:54;98251.28;;;5.56;100.00
66588;BME280;53446;50.076;8.198;2023-12-22T02:53:54;98252.13;;;5.56;100.00
66588;BME280;53446;50.076;8.198;2023-12-22T02:55:54;98251.38;;;5.54;100.00
66588;BME280;53446;50.076;8.198;2023-12-22T02:57:55;98249.44;;;5.56;100.00
66588;BME280;53446;50.076;8.198;2023-12-22T02:59:56;98238.63;;;5.58;100.00
66588;BME280;53446;50.076;8.198;2023-12-22T03:01:56;98234.09;;;5.58;100.00
66588;BME280;53446;50.076;8.198;2023-12-22T03:03:56;98231.41;;;5.58;100.00
66588;BME280;53446;50.076;8.198;2023-12-22T03:05:57;98234.94;;;5.59;100.00
66588;BME280;53446;50.076;8.198;2023-12-22T03:07:57;98239.47;;;5.58;100.00
66588;BME280;53446;50.076;8.198;2023-12-22T03:09:57;98236.66;;;5.60;100.00
66588;BME280;53446;50.076;8.198;2023-12-22T03:11:57;98224.22;;;5.59;100.00
66588;BME280;53446;50.076;8.198;2023-12-22T03:14:01;98226.06;;;5.58;100.00
66588;BME280;53446;50.076;8.198;2023-12-22T03:16:02;98221.66;;;5.57;100.00
66588;BME280;53446;50.076;8.198;2023-12-22T03:18:02;98215.44;;;5.57;100.00
66588;BME280;53446;50.076;8.198;2023-12-22T03:20:03;98211.81;;;5.58;100.00
66588;BME280;53446;50.076;8.198;2023-12-22T03:22:04;98206.44;;;5.58;100.00
66588;BME280;53446;50.076;8.198;2023-12-22T03:24:04;98230.09;;;5.64;100.00
66588;BME280;53446;50.076;8.198;2023-12-22T03:26:05;98225.47;;;5.66;100.00
66588;BME280;53446;50.076;8.198;2023-12-22T03:28:05;98234.66;;;5.75;100.00
66588;BME280;53446;50.076;8.198;2023-12-22T03:30:06;98226.28;;;5.79;100.00
66588;BME280;53446;50.076;8.198;2023-12-22T03:32:06;98226.66;;;5.86;100.00
66588;BME280;53446;50.076;8.198;2023-12-22T03:34:07;98235.22;;;5.91;100.00
66588;BME280;53446;50.076;8.198;2023-12-22T03:36:07;98229.84;;;5.91;100.00
66588;BME280;53446;50.076;8.198;2023-12-22T03:38:07;98248.50;;;5.92;100.00
66588;BME280;53446;50.076;8.198;2023-12-22T03:40:08;98240.28;;;5.96;100.00
66588;BME280;53446;50.076;8.198;2023-12-22T03:42:09;98231.97;;;5.99;100.00
66588;BME280;53446;50.076;8.198;2023-12-22T03:44:10;98220.25;;;6.00;100.00
66588;BME280;53446;50.076;8.198;2023-12-22T03:46:10;98234.56;;;6.00;100.00
66588;BME280;53446;50.076;8.198;2023-12-22T03:48:10;98217.88;;;6.08;100.00
66588;BME280;53446;50.076;8.198;2023-12-22T03:50:11;98221.03;;;6.13;100.00
66588;BME280;53446;50.076;8.198;2023-12-22T03:52:11;98202.00;;;6.16;100.00
66588;BME280;53446;50.076;8.198;2023-12-22T03:54:11;98195.34;;;6.22;100.00
66588;BME280;53446;50.076;8.198;2023-12-22T03:56:11;98199.97;;;6.20;100.00
66588;BME280;53446;50.076;8.198;2023-12-22T03:58:12;98190.31;;;6.17;100.00
66588;BME280;53446;50.076;8.198;2023-12-22T04:00:12;98191.06;;;6.19;100.00
66588;BME280;53446;50.076;8.198;2023-12-22T04:02:13;98200.91;;;6.19;100.00
66588;BME280;53446;50.076;8.198;2023-12-22T04:04:13;98189.47;;;6.17;100.00
66588;BME280;53446;50.076;8.198;2023-12-22T04:06:14;98211.28;;;6.12;100.00
66588;BME280;53446;50.076;8.198;2023-12-22T04:08:14;98201.16;;;6.15;100.00
66588;BME280;53446;50.076;8.198;2023-12-22T04:10:16;98201.53;;;6.22;100.00
66588;BME280;53446;50.076;8.198;2023-12-22T04:12:17;98209.34;;;6.25;100.00
66588;BME280;53446;50.076;8.198;2023-12-22T04:14:17;98220.81;;;6.27;100.00
66588;BME280;53446;50.076;8.198;2023-12-22T04:16:18;98215.47;;;6.27;100.00
66588;BME280;53446;50.076;8.198;2023-12-22T04:18:18;98205.22;;;6.32;100.00
66588;BME280;53446;50.076;8.198;2023-12-22T04:20:19;98205.94;;;6.34;100.00
66588;BME280;53446;50.076;8.198;2023-12-22T04:22:19;98206.81;;;6.35;100.00
66588;BME280;53446;50.076;8.198;2023-12-22T04:24:19;98226.59;;;6.34;100.00
66588;BME280;53446;50.076;8.198;2023-12-22T04:26:19;98221.81;;;6.38;100.00
66588;BME280;53446;50.076;8.198;2023-12-22T04:28:20;98244.53;;;6.33;100.00
66588;BME280;53446;50.076;8.198;2023-12-22T04:30:20;98227.19;;;6.38;100.00
66588;BME280;53446;50.076;8.198;2023-12-22T04:32:20;98234.38;;;6.37;100.00
66588;BME280;53446;50.076;8.198;2023-12-22T04:34:20;98230.84;;;6.36;100.00
66588;BME280;53446;50.076;8.198;2023-12-22T04:36:21;98218.91;;;6.41;100.00
66588;BME280;53446;50.076;8.198;2023-12-22T04:38:21;98228.91;;;6.39;100.00
66588;BME280;53446;50.076;8.198;2023-12-22T04:40:21;98231.34;;;6.42;100.00
66588;BME280;53446;50.076;8.198;2023-12-22T04:42:21;98236.59;;;6.43;100.00
66588;BME280;53446;50.076;8.198;2023-12-22T04:44:22;98223.19;;;6.43;100.00
66588;BME280;53446;50.076;8.198;2023-12-22T04:46:22;98236.34;;;6.46;100.00
66588;BME280;53446;50.076;8.198;2023-12-22T04:48:22;98237.84;;;6.50;100.00
66588;BME280;53446;50.076;8.198;2023-12-22T04:50:22;98238.69;;;6.51;100.00
66588;BME280;53446;50.076;8.198;2023-12-22T04:52:23;98232.31;;;6.52;100.00
66588;BME280;53446;50.076;8.198;2023-12-22T04:54:23;98238.44;;;6.54;100.00
66588;BME280;53446;50.076;8.198;2023-12-22T04:56:23;98242.34;;;6.61;100.00
66588;BME280;53446;50.076;8.198;2023-12-22T04:58:24;98254.09;;;6.60;100.00
66588;BME280;53446;50.076;8.198;2023-12-22T05:00:25;98268.72;;;6.56;100.00
66588;BME280;53446;50.076;8.198;2023-12-22T05:02:25;98278.97;;;6.51;100.00
66588;BME280;53446;50.076;8.198;2023-12-22T05:04:25;98252.81;;;6.42;100.00
66588;BME280;53446;50.076;8.198;2023-12-22T05:06:26;98270.00;;;6.28;100.00
66588;BME280;53446;50.076;8.198;2023-12-22T05:08:26;98273.91;;;6.24;100.00
66588;BME280;53446;50.076;8.198;2023-12-22T05:10:26;98279.72;;;6.18;100.00
66588;BME280;53446;50.076;8.198;2023-12-22T05:12:26;98279.59;;;6.08;100.00
66588;BME280;53446;50.076;8.198;2023-12-22T05:14:27;98312.22;;;6.02;100.00
66588;BME280;53446;50.076;8.198;2023-12-22T05:16:27;98269.78;;;5.96;100.00
66588;BME280;53446;50.076;8.198;2023-12-22T05:18:29;98290.56;;;5.92;100.00
66588;BME280;53446;50.076;8.198;2023-12-22T05:20:29;98278.16;;;5.91;100.00
66588;BME280;53446;50.076;8.198;2023-12-22T05:22:30;98270.09;;;5.91;100.00
66588;BME280;53446;50.076;8.198;2023-12-22T05:24:31;98273.63;;;5.91;100.00
66588;BME280;53446;50.076;8.198;2023-12-22T05:26:31;98271.69;;;5.93;100.00
66588;BME280;53446;50.076;8.198;2023-12-22T05:28:32;98262.91;;;5.91;100.00
66588;BME280;53446;50.076;8.198;2023-12-22T05:30:32;98273.88;;;5.88;100.00
66588;BME280;53446;50.076;8.198;2023-12-22T05:32:32;98269.47;;;5.87;100.00
66588;BME280;53446;50.076;8.198;2023-12-22T05:34:33;98277.25;;;5.90;100.00
66588;BME280;53446;50.076;8.198;2023-12-22T05:36:33;98275.25;;;5.94;100.00
66588;BME280;53446;50.076;8.198;2023-12-22T05:38:39;98285.00;;;5.95;100.00
66588;BME280;53446;50.076;8.198;2023-12-22T05:40:40;98278.09;;;6.04;100.00
66588;BME280;53446;50.076;8.198;2023-12-22T05:42:40;98287.50;;;6.09;100.00
66588;BME280;53446;50.076;8.198;2023-12-22T05:44:40;98264.97;;;6.12;100.00
66588;BME280;53446;50.076;8.198;2023-12-22T05:46:41;98271.56;;;6.19;100.00
66588;BME280;53446;50.076;8.198;2023-12-22T05:48:41;98267.66;;;6.23;100.00
66588;BME280;53446;50.076;8.198;2023-12-22T05:50:41;98267.66;;;6.23;100.00
66588;BME280;53446;50.076;8.198;2023-12-22T05:52:41;98295.13;;;6.27;100.00
66588;BME280;53446;50.076;8.198;2023-12-22T05:54:42;98290.38;;;6.30;100.00
66588;BME280;53446;50.076;8.198;2023-12-22T05:56:42;98309.66;;;6.24;100.00
66588;BME280;53446;50.076;8.198;2023-12-22T05:58:42;98291.06;;;6.21;100.00
66588;BME280;53446;50.076;8.198;2023-12-22T06:00:43;98286.19;;;6.15;100.00
66588;BME280;53446;50.076;8.198;2023-12-22T06:02:43;98283.50;;;6.15;100.00
66588;BME280;53446;50.076;8.198;2023-12-22T06:04:44;98287.16;;;6.14;100.00
66588;BME280;53446;50.076;8.198;2023-12-22T06:06:44;98293.25;;;6.16;100.00
66588;BME280;53446;50.076;8.198;2023-12-22T06:08:45;98300.56;;;6.14;100.00
66588;BME280;53446;50.076;8.198;2023-12-22T06:10:45;98314.88;;;6.14;100.00
66588;BME280;53446;50.076;8.198;2023-12-22T06:12:45;98304.25;;;6.13;100.00
66588;BME280;53446;50.076;8.198;2023-12-22T06:14:45;98320.09;;;6.16;100.00
66588;BME280;53446;50.076;8.198;2023-12-22T06:16:46;98293.50;;;6.13;100.00
66588;BME280;53446;50.076;8.198;2023-12-22T06:18:46;98278.16;;;6.15;100.00
66588;BME280;53446;50.076;8.198;2023-12-22T06:20:46;98306.06;;;6.12;100.00
66588;BME280;53446;50.076;8.198;2023-12-22T06:22:46;98305.09;;;6.13;100.00
66588;BME280;53446;50.076;8.198;2023-12-22T06:24:47;98284.00;;;6.20;100.00
66588;BME280;53446;50.076;8.198;2023-12-22T06:26:47;98294.28;;;6.26;100.00
66588;BME280;53446;50.076;8.198;2023-12-22T06:28:47;98298.19;;;6.22;100.00
66588;BME280;53446;50.076;8.198;2023-12-22T06:30:47;98292.56;;;6.25;100.00
66588;BME280;53446;50.076;8.198;2023-12-22T06:32:48;98275.00;;;6.32;100.00
66588;BME280;53446;50.076;8.198;2023-12-22T06:34:48;98304.69;;;6.31;100.00
66588;BME280;53446;50.076;8.198;2023-12-22T06:36:49;98300.41;;;6.40;100.00
66588;BME280;53446;50.076;8.198;2023-12-22T06:38:51;98300.31;;;6.41;100.00
66588;BME280;53446;50.076;8.198;2023-12-22T06:40:51;98307.28;;;6.44;100.00
66588;BME280;53446;50.076;8.198;2023-12-22T06:42:51;98308.97;;;6.45;100.00
66588;BME280;53446;50.076;8.198;2023-12-22T06:44:52;98295.44;;;6.46;100.00
66588;BME280;53446;50.076;8.198;2023-12-22T06:46:52;98304.13;;;6.50;100.00
66588;BME280;53446;50.076;8.198;2023-12-22T06:48:53;98298.25;;;6.56;100.00
66588;BME280;53446;50.076;8.198;2023-12-22T06:50:54;98297.06;;;6.60;100.00
66588;BME280;53446;50.076;8.198;2023-12-22T06:52:54;98296.81;;;6.63;100.00
66588;BME280;53446;50.076;8.198;2023-12-22T06:54:54;98303.41;;;6.70;100.00
66588;BME280;53446;50.076;8.198;2023-12-22T06:56:55;98318.56;;;6.71;100.00
66588;BME280;53446;50.076;8.198;2023-12-22T06:58:56;98300.50;;;6.73;100.00
66588;BME280;53446;50.076;8.198;2023-12-22T07:00:59;98318.97;;;6.78;100.00
66588;BME280;53446;50.076;8.198;2023-12-22T07:03:00;98300.84;;;6.80;100.00
66588;BME280;53446;50.076;8.198;2023-12-22T07:05:42;98296.97;;;6.84;100.00
66588;BME280;53446;50.076;8.198;2023-12-22T07:07:26;98308.44;;;6.86;100.00
66588;BME280;53446;50.076;8.198;2023-12-22T07:11:28;98323.13;;;6.93;100.00
66588;BME280;53446;50.076;8.198;2023-12-22T07:13:28;98317.84;;;6.92;100.00
66588;BME280;53446;50.076;8.198;2023-12-22T07:15:29;98329.97;;;6.97;100.00
66588;BME280;53446;50.076;8.198;2023-12-22T07:17:29;98325.31;;;6.99;100.00
66588;BME280;53446;50.076;8.198;2023-12-22T07:19:29;98327.78;;;7.03;100.00
66588;BME280;53446;50.076;8.198;2023-12-22T07:21:29;98341.34;;;7.12;100.00
66588;BME280;53446;50.076;8.198;2023-12-22T07:23:30;98328.38;;;7.17;100.00
66588;BME280;53446;50.076;8.198;2023-12-22T07:25:35;98321.69;;;7.23;100.00
66588;BME280;53446;50.076;8.198;2023-12-22T07:27:35;98344.78;;;7.26;100.00
66588;BME280;53446;50.076;8.198;2023-12-22T07:29:35;98361.63;;;7.28;100.00
66588;BME280;53446;50.076;8.198;2023-12-22T07:31:36;98363.97;;;7.32;100.00
66588;BME280;53446;50.076;8.198;2023-12-22T07:33:36;98366.50;;;7.34;100.00
66588;BME280;53446;50.076;8.198;2023-12-22T07:35:36;98377.53;;;7.31;100.00
66588;BME280;53446;50.076;8.198;2023-12-22T07:37:36;98374.09;;;7.29;100.00
66588;BME280;53446;50.076;8.198;2023-12-22T07:39:37;98361.28;;;7.32;100.00
66588;BME280;53446;50.076;8.198;2023-12-22T07:41:37;98378.25;;;7.33;100.00
66588;BME280;53446;50.076;8.198;2023-12-22T07:43:37;98384.47;;;7.33;100.00
66588;BME280;53446;50.076;8.198;2023-12-22T07:45:37;98369.22;;;7.45;100.00
66588;BME280;53446;50.076;8.198;2023-12-22T07:47:38;98427.28;;;7.48;100.00
66588;BME280;53446;50.076;8.198;2023-12-22T07:49:38;98378.38;;;7.54;100.00
66588;BME280;53446;50.076;8.198;2023-12-22T07:51:38;98378.72;;;7.60;100.00
66588;BME280;53446;50.076;8.198;2023-12-22T07:53:39;98358.81;;;7.63;100.00
66588;BME280;53446;50.076;8.198;2023-12-22T07:55:39;98364.53;;;7.70;100.00
66588;BME280;53446;50.076;8.198;2023-12-22T07:57:40;98351.97;;;7.70;100.00
66588;BME280;53446;50.076;8.198;2023-12-22T07:59:41;98345.69;;;7.70;100.00
66588;BME280;53446;50.076;8.198;2023-12-22T08:01:41;98354.75;;;7.80;100.00
66588;BME280;53446;50.076;8.198;2023-12-22T08:03:41;98361.09;;;7.79;100.00
66588;BME280;53446;50.076;8.198;2023-12-22T08:05:41;98375.53;;;7.78;100.00
66588;BME280;53446;50.076;8.198;2023-12-22T08:07:42;98395.72;;;7.72;100.00
66588;BME280;53446;50.076;8.198;2023-12-22T08:09:42;98398.06;;;7.66;100.00
66588;BME280;53446;50.076;8.198;2023-12-22T08:11:42;98397.91;;;7.56;100.00
66588;BME280;53446;50.076;8.198;2023-12-22T08:13:47;98393.16;;;7.37;100.00
66588;BME280;53446;50.076;8.198;2023-12-22T08:15:47;98381.91;;;7.32;100.00
66588;BME280;53446;50.076;8.198;2023-12-22T08:17:48;98397.31;;;7.18;100.00
66588;BME280;53446;50.076;8.198;2023-12-22T08:19:49;98411.47;;;7.09;100.00
66588;BME280;53446;50.076;8.198;2023-12-22T08:21:49;98422.69;;;7.03;100.00
66588;BME280;53446;50.076;8.198;2023-12-22T08:23:49;98424.13;;;6.96;100.00
66588;BME280;53446;50.076;8.198;2023-12-22T08:25:50;98430.00;;;6.90;100.00
66588;BME280;53446;50.076;8.198;2023-12-22T08:27:51;98451.72;;;6.87;100.00
66588;BME280;53446;50.076;8.198;2023-12-22T08:29:52;98442.41;;;6.79;100.00
66588;BME280;53446;50.076;8.198;2023-12-22T08:31:52;98429.97;;;6.78;100.00
66588;BME280;53446;50.076;8.198;2023-12-22T08:33:53;98424.78;;;6.75;100.00
66588;BME280;53446;50.076;8.198;2023-12-22T08:35:53;98422.84;;;6.77;100.00
66588;BME280;53446;50.076;8.198;2023-12-22T08:37:54;98427.28;;;6.78;100.00
66588;BME280;53446;50.076;8.198;2023-12-22T08:39:54;98427.03;;;6.82;100.00
66588;BME280;53446;50.076;8.198;2023-12-22T08:41:54;98435.72;;;6.85;100.00
66588;BME280;53446;50.076;8.198;2023-12-22T08:43:54;98430.09;;;6.88;100.00
66588;BME280;53446;50.076;8.198;2023-12-22T08:45:55;98433.41;;;6.92;100.00
66588;BME280;53446;50.076;8.198;2023-12-22T08:47:56;98416.31;;;6.93;100.00
66588;BME280;53446;50.076;8.198;2023-12-22T08:49:56;98423.41;;;6.94;100.00
66588;BME280;53446;50.076;8.198;2023-12-22T08:51:56;98434.78;;;6.97;100.00
66588;BME280;53446;50.076;8.198;2023-12-22T08:53:58;98421.19;;;6.99;100.00
66588;BME280;53446;50.076;8.198;2023-12-22T08:55:58;98423.88;;;6.99;100.00
66588;BME280;53446;50.076;8.198;2023-12-22T08:57:58;98433.53;;;6.90;100.00
66588;BME280;53446;50.076;8.198;2023-12-22T08:59:58;98445.97;;;6.91;100.00
66588;BME280;53446;50.076;8.198;2023-12-22T09:01:59;98437.56;;;6.96;100.00
66588;BME280;53446;50.076;8.198;2023-12-22T09:03:59;98448.31;;;6.96;100.00
66588;BME280;53446;50.076;8.198;2023-12-22T09:05:59;98435.00;;;6.94;100.00
66588;BME280;53446;50.076;8.198;2023-12-22T09:08:00;98436.81;;;6.94;100.00
66588;BME280;53446;50.076;8.198;2023-12-22T09:10:00;98441.47;;;6.92;100.00
66588;BME280;53446;50.076;8.198;2023-12-22T09:12:01;98430.72;;;6.92;100.00
66588;BME280;53446;50.076;8.198;2023-12-22T09:14:01;98439.41;;;6.95;100.00
66588;BME280;53446;50.076;8.198;2023-12-22T09:16:01;98430.00;;;7.01;100.00
66588;BME280;53446;50.076;8.198;2023-12-22T09:18:02;98426.13;;;7.05;100.00
66588;BME280;53446;50.076;8.198;2023-12-22T09:20:03;98436.63;;;7.08;100.00
66588;BME280;53446;50.076;8.198;2023-12-22T09:22:03;98433.81;;;7.10;100.00
66588;BME280;53446;50.076;8.198;2023-12-22T09:24:03;98425.41;;;7.14;100.00
66588;BME280;53446;50.076;8.198;2023-12-22T09:26:05;98432.25;;;7.18;100.00
66588;BME280;53446;50.076;8.198;2023-12-22T09:28:05;98435.44;;;7.24;100.00
66588;BME280;53446;50.076;8.198;2023-12-22T09:30:06;98438.00;;;7.25;100.00
66588;BME280;53446;50.076;8.198;2023-12-22T09:32:07;98437.78;;;7.28;100.00
66588;BME280;53446;50.076;8.198;2023-12-22T09:34:07;98439.25;;;7.32;100.00
66588;BME280;53446;50.076;8.198;2023-12-22T09:36:08;98436.69;;;7.31;100.00
66588;BME280;53446;50.076;8.198;2023-12-22T09:38:10;98437.63;;;7.30;100.00
66588;BME280;53446;50.076;8.198;2023-12-22T09:40:10;98446.09;;;7.36;100.00
66588;BME280;53446;50.076;8.198;2023-12-22T09:42:11;98447.66;;;7.39;100.00
66588;BME280;53446;50.076;8.198;2023-12-22T09:44:12;98452.31;;;7.37;100.00
66588;BME280;53446;50.076;8.198;2023-12-22T09:46:13;98441.19;;;7.41;100.00
66588;BME280;53446;50.076;8.198;2023-12-22T09:48:15;98450.00;;;7.43;100.00
66588;BME280;53446;50.076;8.198;2023-12-22T09:50:18;98430.44;;;7.41;100.00
66588;BME280;53446;50.076;8.198;2023-12-22T09:52:20;98434.75;;;7.44;100.00
66588;BME280;53446;50.076;8.198;2023-12-22T09:54:21;98436.09;;;7.50;100.00
66588;BME280;53446;50.076;8.198;2023-12-22T09:56:22;98428.13;;;7.48;100.00
66588;BME280;53446;50.076;8.198;2023-12-22T09:58:24;98416.16;;;7.52;100.00
66588;BME280;53446;50.076;8.198;2023-12-22T10:00:24;98419.44;;;7.56;100.00
66588;BME280;53446;50.076;8.198;2023-12-22T10:02:29;98414.94;;;7.56;100.00
66588;BME280;53446;50.076;8.198;2023-12-22T10:04:30;98435.56;;;7.56;100.00
66588;BME280;53446;50.076;8.198;2023-12-22T10:06:31;98416.63;;;7.57;100.00
66588;BME280;53446;50.076;8.198;2023-12-22T10:08:32;98402.22;;;7.58;100.00
66588;BME280;53446;50.076;8.198;2023-12-22T10:10:33;98396.59;;;7.61;100.00
66588;BME280;53446;50.076;8.198;2023-12-22T10:12:34;98395.38;;;7.66;100.00
66588;BME280;53446;50.076;8.198;2023-12-22T10:14:34;98395.00;;;7.70;100.00
66588;BME280;53446;50.076;8.198;2023-12-22T10:16:36;98397.56;;;7.72;100.00
66588;BME280;53446;50.076;8.198;2023-12-22T10:18:37;98392.91;;;7.74;100.00
66588;BME280;53446;50.076;8.198;2023-12-22T10:20:38;98384.47;;;7.78;100.00
66588;BME280;53446;50.076;8.198;2023-12-22T10:22:38;98381.41;;;7.83;100.00
66588;BME280;53446;50.076;8.198;2023-12-22T10:24:42;98377.50;;;7.87;100.00
66588;BME280;53446;50.076;8.198;2023-12-22T10:26:44;98375.03;;;7.84;100.00
66588;BME280;53446;50.076;8.198;2023-12-22T10:28:47;98379.91;;;7.90;100.00
66588;BME280;53446;50.076;8.198;2023-12-22T10:30:47;98365.47;;;7.91;100.00
66588;BME280;53446;50.076;8.198;2023-12-22T10:32:50;98365.81;;;7.98;100.00
66588;BME280;53446;50.076;8.198;2023-12-22T10:34:51;98359.94;;;8.04;100.00
66588;BME280;53446;50.076;8.198;2023-12-22T10:36:52;98360.69;;;8.06;100.00
66588;BME280;53446;50.076;8.198;2023-12-22T10:38:53;98360.31;;;8.11;100.00
66588;BME280;53446;50.076;8.198;2023-12-22T10:40:53;98345.47;;;8.16;100.00
66588;BME280;53446;50.076;8.198;2023-12-22T10:42:54;98340.81;;;8.18;100.00